sensor_id;sensor_type;location;lat;lon;timestamp;P1;durP1;ratioP1;P2;durP2;ratioP2
10134;SDS011;5107;48.850;8.924;2024-03-02T00:02:12;11.03;;;7.23;;
10134;SDS011;5107;48.850;8.924;2024-03-02T00:04:37;9.33;;;6.33;;
10134;SDS011;5107;48.850;8.924;2024-03-02T00:07:03;12.07;;;7.57;;
10134;SDS011;5107;48.850;8.924;2024-03-02T00:09:29;10.17;;;6.20;;
10134;SDS011;5107;48.850;8.924;2024-03-02T00:11:54;11.97;;;8.37;;
10134;SDS011;5107;48.850;8.924;2024-03-02T00:14:20;8.70;;;4.73;;
10134;SDS011;5107;48.850;8.924;2024-03-02T00:16:45;12.67;;;7.77;;
10134;SDS011;5107;48.850;8.924;2024-03-02T00:19:11;12.50;;;8.97;;
10134;SDS011;5107;48.850;8.924;2024-03-02T00:21:36;11.50;;;8.07;;
10134;SDS011;5107;48.850;8.924;2024-03-02T00:24:07;12.40;;;8.27;;
10134;SDS011;5107;48.850;8.924;2024-03-02T00:26:45;13.37;;;8.13;;
10134;SDS011;5107;48.850;8.924;2024-03-02T00:29:10;14.20;;;8.00;;
10134;SDS011;5107;48.850;8.924;2024-03-02T00:31:40;9.97;;;6.33;;
10134;SDS011;5107;48.850;8.924;2024-03-02T00:34:06;9.33;;;5.40;;
10134;SDS011;5107;48.850;8.924;2024-03-02T00:36:31;12.37;;;7.90;;
10134;SDS011;5107;48.850;8.924;2024-03-02T00:38:57;11.50;;;6.20;;
10134;SDS011;5107;48.850;8.924;2024-03-02T00:41:23;12.20;;;6.00;;
10134;SDS011;5107;48.850;8.924;2024-03-02T00:43:58;8.47;;;5.30;;
10134;SDS011;5107;48.850;8.924;2024-03-02T00:46:26;7.97;;;5.57;;
10134;SDS011;5107;48.850;8.924;2024-03-02T00:48:58;12.47;;;7.30;;
10134;SDS011;5107;48.850;8.924;2024-03-02T00:51:32;10.00;;;5.70;;
10134;SDS011;5107;48.850;8.924;2024-03-02T00:54:00;8.27;;;5.20;;
10134;SDS011;5107;48.850;8.924;2024-03-02T00:56:29;11.77;;;7.53;;
10134;SDS011;5107;48.850;8.924;2024-03-02T00:58:54;9.77;;;6.73;;
10134;SDS011;5107;48.850;8.924;2024-03-02T01:01:20;9.23;;;6.30;;
10134;SDS011;5107;48.850;8.924;2024-03-02T01:03:45;12.87;;;8.70;;
10134;SDS011;5107;48.850;8.924;2024-03-02T01:06:11;14.30;;;8.93;;
10134;SDS011;5107;48.850;8.924;2024-03-02T01:08:36;11.83;;;7.07;;
10134;SDS011;5107;48.850;8.924;2024-03-02T01:11:02;16.23;;;9.57;;
10134;SDS011;5107;48.850;8.924;2024-03-02T01:13:28;12.83;;;7.17;;
10134;SDS011;5107;48.850;8.924;2024-03-02T01:15:54;10.47;;;6.40;;
10134;SDS011;5107;48.850;8.924;2024-03-02T01:18:19;10.67;;;7.20;;
10134;SDS011;5107;48.850;8.924;2024-03-02T01:20:45;13.53;;;8.50;;
10134;SDS011;5107;48.850;8.924;2024-03-02T01:23:10;16.60;;;9.27;;
10134;SDS011;5107;48.850;8.924;2024-03-02T01:25:36;11.40;;;5.70;;
10134;SDS011;5107;48.850;8.924;2024-03-02T01:28:01;12.17;;;7.93;;
10134;SDS011;5107;48.850;8.924;2024-03-02T01:30:27;8.03;;;5.30;;
10134;SDS011;5107;48.850;8.924;2024-03-02T01:32:52;10.43;;;6.07;;
10134;SDS011;5107;48.850;8.924;2024-03-02T01:35:17;14.53;;;8.97;;
10134;SDS011;5107;48.850;8.924;2024-03-02T01:37:43;15.53;;;8.03;;
10134;SDS011;5107;48.850;8.924;2024-03-02T01:40:08;11.30;;;7.00;;
10134;SDS011;5107;48.850;8.924;2024-03-02T01:42:38;10.87;;;6.80;;
10134;SDS011;5107;48.850;8.924;2024-03-02T01:45:07;11.47;;;7.17;;
10134;SDS011;5107;48.850;8.924;2024-03-02T01:47:34;12.93;;;6.37;;
10134;SDS011;5107;48.850;8.924;2024-03-02T01:49:59;11.23;;;7.07;;
10134;SDS011;5107;48.850;8.924;2024-03-02T01:52:26;11.63;;;7.50;;
10134;SDS011;5107;48.850;8.924;2024-03-02T01:54:52;9.93;;;5.47;;
10134;SDS011;5107;48.850;8.924;2024-03-02T01:57:17;12.67;;;6.93;;
10134;SDS011;5107;48.850;8.924;2024-03-02T01:59:43;9.60;;;5.53;;
10134;SDS011;5107;48.850;8.924;2024-03-02T02:02:08;9.23;;;5.13;;
10134;SDS011;5107;48.850;8.924;2024-03-02T02:04:34;12.63;;;7.07;;
10134;SDS011;5107;48.850;8.924;2024-03-02T02:06:59;12.00;;;6.63;;
10134;SDS011;5107;48.850;8.924;2024-03-02T02:09:25;12.63;;;6.00;;
10134;SDS011;5107;48.850;8.924;2024-03-02T02:11:50;10.80;;;5.63;;
10134;SDS011;5107;48.850;8.924;2024-03-02T02:14:16;15.20;;;7.23;;
10134;SDS011;5107;48.850;8.924;2024-03-02T02:16:41;13.03;;;7.77;;
10134;SDS011;5107;48.850;8.924;2024-03-02T02:19:07;14.80;;;9.50;;
10134;SDS011;5107;48.850;8.924;2024-03-02T02:21:32;13.40;;;7.03;;
10134;SDS011;5107;48.850;8.924;2024-03-02T02:23:58;15.60;;;6.10;;
10134;SDS011;5107;48.850;8.924;2024-03-02T02:26:24;10.67;;;6.23;;
10134;SDS011;5107;48.850;8.924;2024-03-02T02:28:49;17.07;;;10.93;;
10134;SDS011;5107;48.850;8.924;2024-03-02T02:31:15;12.47;;;6.13;;
10134;SDS011;5107;48.850;8.924;2024-03-02T02:33:41;15.23;;;7.70;;
10134;SDS011;5107;48.850;8.924;2024-03-02T02:36:06;11.80;;;5.63;;
10134;SDS011;5107;48.850;8.924;2024-03-02T02:38:32;16.30;;;9.63;;
10134;SDS011;5107;48.850;8.924;2024-03-02T02:41:00;12.37;;;6.80;;
10134;SDS011;5107;48.850;8.924;2024-03-02T02:43:25;9.67;;;5.60;;
10134;SDS011;5107;48.850;8.924;2024-03-02T02:45:50;13.07;;;7.03;;
10134;SDS011;5107;48.850;8.924;2024-03-02T02:48:16;15.17;;;8.93;;
10134;SDS011;5107;48.850;8.924;2024-03-02T02:50:41;12.33;;;7.80;;
10134;SDS011;5107;48.850;8.924;2024-03-02T02:53:06;15.27;;;9.83;;
10134;SDS011;5107;48.850;8.924;2024-03-02T02:55:34;16.23;;;8.80;;
10134;SDS011;5107;48.850;8.924;2024-03-02T02:58:00;15.23;;;10.40;;
10134;SDS011;5107;48.850;8.924;2024-03-02T03:00:25;17.57;;;10.17;;
10134;SDS011;5107;48.850;8.924;2024-03-02T03:02:50;12.47;;;6.80;;
10134;SDS011;5107;48.850;8.924;2024-03-02T03:05:16;14.47;;;9.10;;
10134;SDS011;5107;48.850;8.924;2024-03-02T03:07:42;16.03;;;8.87;;
10134;SDS011;5107;48.850;8.924;2024-03-02T03:10:09;13.80;;;7.93;;
10134;SDS011;5107;48.850;8.924;2024-03-02T03:12:34;13.70;;;8.53;;
10134;SDS011;5107;48.850;8.924;2024-03-02T03:15:00;16.63;;;8.87;;
10134;SDS011;5107;48.850;8.924;2024-03-02T03:17:26;17.17;;;10.50;;
10134;SDS011;5107;48.850;8.924;2024-03-02T03:19:52;15.83;;;9.17;;
10134;SDS011;5107;48.850;8.924;2024-03-02T03:22:18;15.40;;;8.90;;
10134;SDS011;5107;48.850;8.924;2024-03-02T03:24:43;15.13;;;7.83;;
10134;SDS011;5107;48.850;8.924;2024-03-02T03:27:09;13.07;;;6.97;;
10134;SDS011;5107;48.850;8.924;2024-03-02T03:29:36;17.57;;;9.97;;
10134;SDS011;5107;48.850;8.924;2024-03-02T03:32:01;15.47;;;8.13;;
10134;SDS011;5107;48.850;8.924;2024-03-02T03:34:27;18.50;;;11.20;;
10134;SDS011;5107;48.850;8.924;2024-03-02T03:36:54;12.13;;;6.70;;
10134;SDS011;5107;48.850;8.924;2024-03-02T03:39:19;14.80;;;7.57;;
10134;SDS011;5107;48.850;8.924;2024-03-02T03:41:44;17.20;;;9.30;;
10134;SDS011;5107;48.850;8.924;2024-03-02T03:44:10;20.53;;;11.73;;
10134;SDS011;5107;48.850;8.924;2024-03-02T03:46:35;15.77;;;8.50;;
10134;SDS011;5107;48.850;8.924;2024-03-02T03:49:00;18.50;;;11.23;;
10134;SDS011;5107;48.850;8.924;2024-03-02T03:51:26;17.70;;;10.33;;
10134;SDS011;5107;48.850;8.924;2024-03-02T03:53:51;19.47;;;12.10;;
10134;SDS011;5107;48.850;8.924;2024-03-02T03:56:16;19.73;;;11.80;;
10134;SDS011;5107;48.850;8.924;2024-03-02T03:58:42;18.30;;;10.40;;
10134;SDS011;5107;48.850;8.924;2024-03-02T04:01:07;19.23;;;11.67;;
10134;SDS011;5107;48.850;8.924;2024-03-02T04:03:33;16.40;;;8.27;;
10134;SDS011;5107;48.850;8.924;2024-03-02T04:05:58;19.30;;;12.50;;
10134;SDS011;5107;48.850;8.924;2024-03-02T04:08:23;21.83;;;12.90;;
10134;SDS011;5107;48.850;8.924;2024-03-02T04:10:49;20.43;;;12.60;;
10134;SDS011;5107;48.850;8.924;2024-03-02T04:13:14;18.77;;;10.63;;
10134;SDS011;5107;48.850;8.924;2024-03-02T04:15:39;19.13;;;9.80;;
10134;SDS011;5107;48.850;8.924;2024-03-02T04:18:05;15.90;;;8.50;;
10134;SDS011;5107;48.850;8.924;2024-03-02T04:20:31;16.93;;;8.20;;
10134;SDS011;5107;48.850;8.924;2024-03-02T04:22:56;16.30;;;8.07;;
10134;SDS011;5107;48.850;8.924;2024-03-02T04:25:22;21.13;;;10.60;;
10134;SDS011;5107;48.850;8.924;2024-03-02T04:27:47;18.33;;;9.07;;
10134;SDS011;5107;48.850;8.924;2024-03-02T04:30:12;22.97;;;11.93;;
10134;SDS011;5107;48.850;8.924;2024-03-02T04:32:38;15.80;;;9.30;;
10134;SDS011;5107;48.850;8.924;2024-03-02T04:35:04;18.50;;;9.23;;
10134;SDS011;5107;48.850;8.924;2024-03-02T04:37:30;14.07;;;7.93;;
10134;SDS011;5107;48.850;8.924;2024-03-02T04:39:57;18.73;;;9.23;;
10134;SDS011;5107;48.850;8.924;2024-03-02T04:42:22;18.77;;;9.47;;
10134;SDS011;5107;48.850;8.924;2024-03-02T04:44:48;21.23;;;12.07;;
10134;SDS011;5107;48.850;8.924;2024-03-02T04:47:13;15.30;;;7.20;;
10134;SDS011;5107;48.850;8.924;2024-03-02T04:49:38;14.00;;;6.93;;
10134;SDS011;5107;48.850;8.924;2024-03-02T04:52:04;12.30;;;7.03;;
10134;SDS011;5107;48.850;8.924;2024-03-02T04:54:29;19.97;;;9.77;;
10134;SDS011;5107;48.850;8.924;2024-03-02T04:56:54;25.03;;;12.67;;
10134;SDS011;5107;48.850;8.924;2024-03-02T04:59:20;21.33;;;11.63;;
10134;SDS011;5107;48.850;8.924;2024-03-02T05:01:45;16.63;;;8.30;;
10134;SDS011;5107;48.850;8.924;2024-03-02T05:04:12;22.20;;;11.13;;
10134;SDS011;5107;48.850;8.924;2024-03-02T05:06:38;14.77;;;7.77;;
10134;SDS011;5107;48.850;8.924;2024-03-02T05:09:05;17.17;;;8.70;;
10134;SDS011;5107;48.850;8.924;2024-03-02T05:11:30;14.30;;;6.67;;
10134;SDS011;5107;48.850;8.924;2024-03-02T05:14:05;18.43;;;8.97;;
10134;SDS011;5107;48.850;8.924;2024-03-02T05:16:34;23.40;;;10.40;;
10134;SDS011;5107;48.850;8.924;2024-03-02T05:19:00;22.50;;;11.90;;
10134;SDS011;5107;48.850;8.924;2024-03-02T05:21:26;18.83;;;9.20;;
10134;SDS011;5107;48.850;8.924;2024-03-02T05:23:51;18.90;;;9.23;;
10134;SDS011;5107;48.850;8.924;2024-03-02T05:26:16;22.73;;;11.67;;
10134;SDS011;5107;48.850;8.924;2024-03-02T05:28:42;15.13;;;7.20;;
10134;SDS011;5107;48.850;8.924;2024-03-02T05:31:10;12.10;;;6.80;;
10134;SDS011;5107;48.850;8.924;2024-03-02T05:33:37;19.60;;;10.13;;
10134;SDS011;5107;48.850;8.924;2024-03-02T05:36:03;13.47;;;7.33;;
10134;SDS011;5107;48.850;8.924;2024-03-02T05:38:29;12.97;;;7.27;;
10134;SDS011;5107;48.850;8.924;2024-03-02T05:40:54;13.43;;;8.13;;
10134;SDS011;5107;48.850;8.924;2024-03-02T05:43:20;14.57;;;6.17;;
10134;SDS011;5107;48.850;8.924;2024-03-02T05:45:45;13.50;;;7.43;;
10134;SDS011;5107;48.850;8.924;2024-03-02T05:48:10;11.07;;;6.73;;
10134;SDS011;5107;48.850;8.924;2024-03-02T05:50:36;15.23;;;8.27;;
10134;SDS011;5107;48.850;8.924;2024-03-02T05:53:01;13.17;;;7.87;;
10134;SDS011;5107;48.850;8.924;2024-03-02T05:55:26;11.47;;;6.10;;
10134;SDS011;5107;48.850;8.924;2024-03-02T05:57:52;15.47;;;8.60;;
10134;SDS011;5107;48.850;8.924;2024-03-02T06:00:32;15.27;;;8.87;;
10134;SDS011;5107;48.850;8.924;2024-03-02T06:02:58;14.43;;;7.47;;
10134;SDS011;5107;48.850;8.924;2024-03-02T06:05:23;12.57;;;7.97;;
10134;SDS011;5107;48.850;8.924;2024-03-02T06:07:49;20.47;;;10.53;;
10134;SDS011;5107;48.850;8.924;2024-03-02T06:10:15;15.50;;;9.77;;
10134;SDS011;5107;48.850;8.924;2024-03-02T06:12:40;18.93;;;10.77;;
10134;SDS011;5107;48.850;8.924;2024-03-02T06:15:06;14.87;;;9.00;;
10134;SDS011;5107;48.850;8.924;2024-03-02T06:17:32;12.47;;;7.00;;
10134;SDS011;5107;48.850;8.924;2024-03-02T06:19:57;12.07;;;7.00;;
10134;SDS011;5107;48.850;8.924;2024-03-02T06:22:23;15.07;;;9.37;;
10134;SDS011;5107;48.850;8.924;2024-03-02T06:24:50;14.73;;;7.67;;
10134;SDS011;5107;48.850;8.924;2024-03-02T06:27:15;15.20;;;7.97;;
10134;SDS011;5107;48.850;8.924;2024-03-02T06:29:41;17.50;;;8.47;;
10134;SDS011;5107;48.850;8.924;2024-03-02T06:32:06;18.43;;;10.07;;
10134;SDS011;5107;48.850;8.924;2024-03-02T06:34:32;18.27;;;9.93;;
10134;SDS011;5107;48.850;8.924;2024-03-02T06:36:57;19.00;;;10.33;;
10134;SDS011;5107;48.850;8.924;2024-03-02T06:39:22;17.43;;;9.60;;
10134;SDS011;5107;48.850;8.924;2024-03-02T06:41:48;14.60;;;8.60;;
10134;SDS011;5107;48.850;8.924;2024-03-02T06:44:13;18.80;;;10.43;;
10134;SDS011;5107;48.850;8.924;2024-03-02T06:46:39;15.87;;;8.53;;
10134;SDS011;5107;48.850;8.924;2024-03-02T06:49:04;12.40;;;6.93;;
10134;SDS011;5107;48.850;8.924;2024-03-02T06:51:30;18.60;;;9.60;;
10134;SDS011;5107;48.850;8.924;2024-03-02T06:54:01;14.00;;;7.20;;
10134;SDS011;5107;48.850;8.924;2024-03-02T06:56:43;13.03;;;6.60;;
10134;SDS011;5107;48.850;8.924;2024-03-02T06:59:08;12.27;;;6.27;;
10134;SDS011;5107;48.850;8.924;2024-03-02T07:01:40;15.33;;;7.30;;
10134;SDS011;5107;48.850;8.924;2024-03-02T07:04:06;11.97;;;7.23;;
10134;SDS011;5107;48.850;8.924;2024-03-02T07:06:32;12.20;;;6.73;;
10134;SDS011;5107;48.850;8.924;2024-03-02T07:09:04;14.70;;;7.23;;
10134;SDS011;5107;48.850;8.924;2024-03-02T07:12:05;12.70;;;7.40;;
10134;SDS011;5107;48.850;8.924;2024-03-02T07:14:30;13.20;;;7.37;;
10134;SDS011;5107;48.850;8.924;2024-03-02T07:22:59;14.63;;;7.77;;
10134;SDS011;5107;48.850;8.924;2024-03-02T07:28:00;12.70;;;6.43;;
10134;SDS011;5107;48.850;8.924;2024-03-02T07:30:26;13.73;;;7.17;;
10134;SDS011;5107;48.850;8.924;2024-03-02T07:32:54;16.30;;;7.70;;
10134;SDS011;5107;48.850;8.924;2024-03-02T07:35:23;9.70;;;6.03;;
10134;SDS011;5107;48.850;8.924;2024-03-02T07:37:58;11.23;;;7.00;;
10134;SDS011;5107;48.850;8.924;2024-03-02T07:40:31;11.57;;;6.47;;
10134;SDS011;5107;48.850;8.924;2024-03-02T07:43:00;11.70;;;6.97;;
10134;SDS011;5107;48.850;8.924;2024-03-02T07:45:38;16.23;;;8.53;;
10134;SDS011;5107;48.850;8.924;2024-03-02T07:48:06;9.47;;;4.93;;
10134;SDS011;5107;48.850;8.924;2024-03-02T07:50:32;12.80;;;8.23;;
10134;SDS011;5107;48.850;8.924;2024-03-02T07:53:00;12.40;;;6.03;;
10134;SDS011;5107;48.850;8.924;2024-03-02T07:55:47;13.47;;;7.70;;
10134;SDS011;5107;48.850;8.924;2024-03-02T07:58:13;13.90;;;8.50;;
10134;SDS011;5107;48.850;8.924;2024-03-02T08:00:39;13.47;;;6.60;;
10134;SDS011;5107;48.850;8.924;2024-03-02T08:06:28;17.40;;;10.60;;
10134;SDS011;5107;48.850;8.924;2024-03-02T08:09:06;14.70;;;9.23;;
10134;SDS011;5107;48.850;8.924;2024-03-02T08:11:39;17.03;;;11.23;;
10134;SDS011;5107;48.850;8.924;2024-03-02T08:14:17;14.47;;;10.07;;
10134;SDS011;5107;48.850;8.924;2024-03-02T08:16:46;12.03;;;7.67;;
10134;SDS011;5107;48.850;8.924;2024-03-02T08:19:20;13.43;;;7.97;;
10134;SDS011;5107;48.850;8.924;2024-03-02T08:21:54;14.73;;;7.63;;
10134;SDS011;5107;48.850;8.924;2024-03-02T08:24:20;15.47;;;9.17;;
10134;SDS011;5107;48.850;8.924;2024-03-02T08:26:48;15.33;;;8.07;;
10134;SDS011;5107;48.850;8.924;2024-03-02T08:29:13;17.80;;;10.03;;
10134;SDS011;5107;48.850;8.924;2024-03-02T08:31:58;15.67;;;9.83;;
10134;SDS011;5107;48.850;8.924;2024-03-02T08:34:44;11.20;;;6.90;;
10134;SDS011;5107;48.850;8.924;2024-03-02T08:37:11;12.57;;;7.87;;
10134;SDS011;5107;48.850;8.924;2024-03-02T08:39:46;26.20;;;13.17;;
10134;SDS011;5107;48.850;8.924;2024-03-02T08:42:34;24.07;;;10.90;;
10134;SDS011;5107;48.850;8.924;2024-03-02T08:45:00;16.57;;;9.03;;
10134;SDS011;5107;48.850;8.924;2024-03-02T08:47:38;21.47;;;9.17;;
10134;SDS011;5107;48.850;8.924;2024-03-02T08:50:46;22.93;;;12.97;;
10134;SDS011;5107;48.850;8.924;2024-03-02T08:53:22;10.83;;;6.27;;
10134;SDS011;5107;48.850;8.924;2024-03-02T08:55:57;15.03;;;8.73;;
10134;SDS011;5107;48.850;8.924;2024-03-02T08:58:23;13.70;;;8.10;;
10134;SDS011;5107;48.850;8.924;2024-03-02T09:00:54;11.20;;;7.17;;
10134;SDS011;5107;48.850;8.924;2024-03-02T09:03:41;9.80;;;5.67;;
10134;SDS011;5107;48.850;8.924;2024-03-02T09:06:19;13.77;;;8.00;;
10134;SDS011;5107;48.850;8.924;2024-03-02T09:09:14;10.70;;;7.07;;
10134;SDS011;5107;48.850;8.924;2024-03-02T09:11:39;11.60;;;8.27;;
10134;SDS011;5107;48.850;8.924;2024-03-02T09:14:05;14.20;;;9.70;;
10134;SDS011;5107;48.850;8.924;2024-03-02T09:16:30;8.30;;;5.20;;
10134;SDS011;5107;48.850;8.924;2024-03-02T09:18:56;10.93;;;6.53;;
10134;SDS011;5107;48.850;8.924;2024-03-02T09:21:22;8.80;;;6.37;;
10134;SDS011;5107;48.850;8.924;2024-03-02T09:23:55;8.43;;;5.53;;
10134;SDS011;5107;48.850;8.924;2024-03-02T09:26:21;11.47;;;6.90;;
10134;SDS011;5107;48.850;8.924;2024-03-02T09:28:59;9.27;;;6.67;;
10134;SDS011;5107;48.850;8.924;2024-03-02T09:32:17;9.40;;;6.83;;
10134;SDS011;5107;48.850;8.924;2024-03-02T09:34:39;7.20;;;4.63;;
10134;SDS011;5107;48.850;8.924;2024-03-02T09:37:13;6.80;;;5.27;;
10134;SDS011;5107;48.850;8.924;2024-03-02T09:40:02;6.77;;;4.67;;
10134;SDS011;5107;48.850;8.924;2024-03-02T09:45:45;10.70;;;8.00;;
10134;SDS011;5107;48.850;8.924;2024-03-02T09:48:14;7.43;;;4.90;;
10134;SDS011;5107;48.850;8.924;2024-03-02T09:50:51;7.07;;;4.93;;
10134;SDS011;5107;48.850;8.924;2024-03-02T09:53:25;7.00;;;5.17;;
10134;SDS011;5107;48.850;8.924;2024-03-02T09:56:17;7.53;;;5.90;;
10134;SDS011;5107;48.850;8.924;2024-03-02T09:58:46;4.87;;;3.23;;
10134;SDS011;5107;48.850;8.924;2024-03-02T10:01:12;8.80;;;6.03;;
10134;SDS011;5107;48.850;8.924;2024-03-02T10:03:44;6.80;;;5.20;;
10134;SDS011;5107;48.850;8.924;2024-03-02T10:06:22;5.37;;;4.30;;
10134;SDS011;5107;48.850;8.924;2024-03-02T10:08:56;5.07;;;4.00;;
10134;SDS011;5107;48.850;8.924;2024-03-02T10:14:03;4.80;;;4.30;;
10134;SDS011;5107;48.850;8.924;2024-03-02T10:16:46;6.07;;;4.60;;
10134;SDS011;5107;48.850;8.924;2024-03-02T10:19:34;4.77;;;4.27;;
10134;SDS011;5107;48.850;8.924;2024-03-02T10:22:00;5.83;;;4.77;;
10134;SDS011;5107;48.850;8.924;2024-03-02T10:24:37;7.30;;;4.50;;
10134;SDS011;5107;48.850;8.924;2024-03-02T10:27:10;5.73;;;4.53;;
10134;SDS011;5107;48.850;8.924;2024-03-02T10:29:48;5.07;;;4.23;;
10134;SDS011;5107;48.850;8.924;2024-03-02T10:32:16;4.47;;;3.73;;
10134;SDS011;5107;48.850;8.924;2024-03-02T10:34:42;6.37;;;3.80;;
10134;SDS011;5107;48.850;8.924;2024-03-02T10:37:15;5.93;;;4.40;;
10134;SDS011;5107;48.850;8.924;2024-03-02T10:39:48;4.60;;;3.80;;
10134;SDS011;5107;48.850;8.924;2024-03-02T10:42:17;4.80;;;3.27;;
10134;SDS011;5107;48.850;8.924;2024-03-02T10:44:54;3.67;;;3.37;;
10134;SDS011;5107;48.850;8.924;2024-03-02T10:47:26;6.00;;;3.17;;
10134;SDS011;5107;48.850;8.924;2024-03-02T10:50:00;3.33;;;2.80;;
10134;SDS011;5107;48.850;8.924;2024-03-02T10:52:26;2.87;;;2.57;;
10134;SDS011;5107;48.850;8.924;2024-03-02T10:54:52;2.40;;;2.20;;
10134;SDS011;5107;48.850;8.924;2024-03-02T10:57:17;2.80;;;2.60;;
10134;SDS011;5107;48.850;8.924;2024-03-02T10:59:56;2.87;;;2.57;;
10134;SDS011;5107;48.850;8.924;2024-03-02T11:02:24;3.57;;;2.20;;
10134;SDS011;5107;48.850;8.924;2024-03-02T11:04:53;2.57;;;2.37;;
10134;SDS011;5107;48.850;8.924;2024-03-02T11:07:25;2.37;;;1.90;;
10134;SDS011;5107;48.850;8.924;2024-03-02T11:10:05;2.27;;;1.83;;
10134;SDS011;5107;48.850;8.924;2024-03-02T11:12:43;6.23;;;2.80;;
10134;SDS011;5107;48.850;8.924;2024-03-02T11:15:22;1.20;;;1.10;;
10134;SDS011;5107;48.850;8.924;2024-03-02T11:17:51;1.50;;;1.40;;
10134;SDS011;5107;48.850;8.924;2024-03-02T11:20:24;1.70;;;1.53;;
10134;SDS011;5107;48.850;8.924;2024-03-02T11:22:50;1.63;;;1.43;;
10134;SDS011;5107;48.850;8.924;2024-03-02T11:25:25;1.90;;;1.13;;
10134;SDS011;5107;48.850;8.924;2024-03-02T11:33:04;1.03;;;0.93;;
10134;SDS011;5107;48.850;8.924;2024-03-02T11:35:33;1.23;;;1.13;;
10134;SDS011;5107;48.850;8.924;2024-03-02T11:38:27;1.27;;;1.10;;
10134;SDS011;5107;48.850;8.924;2024-03-02T11:41:06;1.87;;;1.30;;
10134;SDS011;5107;48.850;8.924;2024-03-02T11:43:39;1.17;;;1.03;;
10134;SDS011;5107;48.850;8.924;2024-03-02T11:46:05;1.10;;;1.00;;
10134;SDS011;5107;48.850;8.924;2024-03-02T11:48:42;2.27;;;1.23;;
10134;SDS011;5107;48.850;8.924;2024-03-02T11:51:07;1.43;;;1.27;;
10134;SDS011;5107;48.850;8.924;2024-03-02T11:53:33;1.13;;;0.80;;
10134;SDS011;5107;48.850;8.924;2024-03-02T11:56:00;0.73;;;0.73;;
10134;SDS011;5107;48.850;8.924;2024-03-02T11:58:31;1.10;;;1.00;;
10134;SDS011;5107;48.850;8.924;2024-03-02T12:01:01;0.80;;;0.80;;
10134;SDS011;5107;48.850;8.924;2024-03-02T12:03:27;1.00;;;0.90;;
10134;SDS011;5107;48.850;8.924;2024-03-02T12:05:54;1.43;;;0.70;;
10134;SDS011;5107;48.850;8.924;2024-03-02T12:08:19;0.80;;;0.80;;
10134;SDS011;5107;48.850;8.924;2024-03-02T12:10:59;1.73;;;0.80;;
10134;SDS011;5107;48.850;8.924;2024-03-02T12:13:31;0.70;;;0.70;;
10134;SDS011;5107;48.850;8.924;2024-03-02T12:15:58;1.07;;;0.97;;
10134;SDS011;5107;48.850;8.924;2024-03-02T12:18:27;0.90;;;0.90;;
10134;SDS011;5107;48.850;8.924;2024-03-02T12:20:53;0.80;;;0.80;;
10134;SDS011;5107;48.850;8.924;2024-03-02T12:23:43;0.87;;;0.87;;
10134;SDS011;5107;48.850;8.924;2024-03-02T12:26:08;0.70;;;0.70;;
10134;SDS011;5107;48.850;8.924;2024-03-02T12:28:33;1.33;;;0.80;;
10134;SDS011;5107;48.850;8.924;2024-03-02T12:31:00;0.80;;;0.70;;
10134;SDS011;5107;48.850;8.924;2024-03-02T12:33:28;0.60;;;0.60;;
10134;SDS011;5107;48.850;8.924;2024-03-02T12:35:57;0.70;;;0.70;;
10134;SDS011;5107;48.850;8.924;2024-03-02T12:38:23;0.97;;;0.80;;
10134;SDS011;5107;48.850;8.924;2024-03-02T12:40:52;1.00;;;0.90;;
10134;SDS011;5107;48.850;8.924;2024-03-02T12:43:17;0.63;;;0.63;;
10134;SDS011;5107;48.850;8.924;2024-03-02T12:48:49;1.13;;;0.80;;
10134;SDS011;5107;48.850;8.924;2024-03-02T12:51:15;1.10;;;1.00;;
10134;SDS011;5107;48.850;8.924;2024-03-02T12:53:40;1.10;;;1.00;;
10134;SDS011;5107;48.850;8.924;2024-03-02T12:56:07;1.00;;;0.90;;
10134;SDS011;5107;48.850;8.924;2024-03-02T12:58:38;0.97;;;0.93;;
10134;SDS011;5107;48.850;8.924;2024-03-02T13:01:09;0.90;;;0.90;;
10134;SDS011;5107;48.850;8.924;2024-03-02T13:03:52;0.70;;;0.70;;
10134;SDS011;5107;48.850;8.924;2024-03-02T13:06:22;0.60;;;0.60;;
10134;SDS011;5107;48.850;8.924;2024-03-02T13:08:49;2.00;;;0.93;;
10134;SDS011;5107;48.850;8.924;2024-03-02T13:11:15;0.80;;;0.80;;
10134;SDS011;5107;48.850;8.924;2024-03-02T13:13:45;1.30;;;0.93;;
10134;SDS011;5107;48.850;8.924;2024-03-02T13:16:10;3.23;;;0.90;;
10134;SDS011;5107;48.850;8.924;2024-03-02T13:18:38;1.20;;;1.10;;
10134;SDS011;5107;48.850;8.924;2024-03-02T13:21:07;0.80;;;0.80;;
10134;SDS011;5107;48.850;8.924;2024-03-02T13:23:34;1.07;;;0.90;;
10134;SDS011;5107;48.850;8.924;2024-03-02T13:26:06;0.87;;;0.87;;
10134;SDS011;5107;48.850;8.924;2024-03-02T13:28:34;1.10;;;1.00;;
10134;SDS011;5107;48.850;8.924;2024-03-02T13:31:00;0.90;;;0.80;;
10134;SDS011;5107;48.850;8.924;2024-03-02T13:33:28;1.00;;;0.90;;
10134;SDS011;5107;48.850;8.924;2024-03-02T13:35:55;1.07;;;1.07;;
10134;SDS011;5107;48.850;8.924;2024-03-02T13:38:20;1.37;;;1.20;;
10134;SDS011;5107;48.850;8.924;2024-03-02T13:40:46;1.70;;;1.37;;
10134;SDS011;5107;48.850;8.924;2024-03-02T13:43:16;4.03;;;2.70;;
10134;SDS011;5107;48.850;8.924;2024-03-02T13:45:42;4.00;;;2.20;;
10134;SDS011;5107;48.850;8.924;2024-03-02T13:48:07;2.27;;;1.67;;
10134;SDS011;5107;48.850;8.924;2024-03-02T13:50:35;1.10;;;1.00;;
10134;SDS011;5107;48.850;8.924;2024-03-02T13:53:01;1.27;;;0.87;;
10134;SDS011;5107;48.850;8.924;2024-03-02T13:55:28;1.10;;;0.90;;
10134;SDS011;5107;48.850;8.924;2024-03-02T13:57:56;0.80;;;0.80;;
10134;SDS011;5107;48.850;8.924;2024-03-02T14:00:23;0.80;;;0.80;;
10134;SDS011;5107;48.850;8.924;2024-03-02T14:06:30;0.90;;;0.90;;
10134;SDS011;5107;48.850;8.924;2024-03-02T14:09:02;3.00;;;1.00;;
10134;SDS011;5107;48.850;8.924;2024-03-02T14:23:24;0.90;;;0.90;;
10134;SDS011;5107;48.850;8.924;2024-03-02T14:36:39;1.00;;;0.80;;
10134;SDS011;5107;48.850;8.924;2024-03-02T14:48:58;1.50;;;1.00;;
10134;SDS011;5107;48.850;8.924;2024-03-02T14:51:24;1.03;;;1.00;;
10134;SDS011;5107;48.850;8.924;2024-03-02T14:53:52;0.90;;;0.90;;
10134;SDS011;5107;48.850;8.924;2024-03-02T14:56:27;1.00;;;0.93;;
10134;SDS011;5107;48.850;8.924;2024-03-02T14:58:53;0.90;;;0.90;;
10134;SDS011;5107;48.850;8.924;2024-03-02T15:01:19;1.20;;;1.10;;
10134;SDS011;5107;48.850;8.924;2024-03-02T15:03:47;1.00;;;1.00;;
10134;SDS011;5107;48.850;8.924;2024-03-02T15:06:14;2.70;;;1.33;;
10134;SDS011;5107;48.850;8.924;2024-03-02T15:08:40;1.70;;;1.20;;
10134;SDS011;5107;48.850;8.924;2024-03-02T15:11:07;1.13;;;1.03;;
10134;SDS011;5107;48.850;8.924;2024-03-02T15:13:33;1.77;;;1.30;;
10134;SDS011;5107;48.850;8.924;2024-03-02T15:19:40;0.90;;;0.90;;
10134;SDS011;5107;48.850;8.924;2024-03-02T15:22:05;1.13;;;1.13;;
10134;SDS011;5107;48.850;8.924;2024-03-02T15:24:31;2.20;;;1.80;;
10134;SDS011;5107;48.850;8.924;2024-03-02T15:26:56;2.47;;;1.80;;
10134;SDS011;5107;48.850;8.924;2024-03-02T15:29:22;2.37;;;1.80;;
10134;SDS011;5107;48.850;8.924;2024-03-02T15:32:05;1.33;;;1.10;;
10134;SDS011;5107;48.850;8.924;2024-03-02T15:34:31;0.93;;;0.93;;
10134;SDS011;5107;48.850;8.924;2024-03-02T15:36:57;1.83;;;1.27;;
10134;SDS011;5107;48.850;8.924;2024-03-02T15:39:32;2.10;;;1.13;;
10134;SDS011;5107;48.850;8.924;2024-03-02T15:41:57;1.33;;;1.23;;
10134;SDS011;5107;48.850;8.924;2024-03-02T15:44:22;5.00;;;1.47;;
10134;SDS011;5107;48.850;8.924;2024-03-02T15:46:51;1.40;;;1.30;;
10134;SDS011;5107;48.850;8.924;2024-03-02T15:49:16;1.50;;;1.40;;
10134;SDS011;5107;48.850;8.924;2024-03-02T15:51:42;1.90;;;1.50;;
10134;SDS011;5107;48.850;8.924;2024-03-02T15:54:09;1.70;;;1.60;;
10134;SDS011;5107;48.850;8.924;2024-03-02T15:56:38;1.40;;;1.27;;
10134;SDS011;5107;48.850;8.924;2024-03-02T15:59:04;1.33;;;1.23;;
10134;SDS011;5107;48.850;8.924;2024-03-02T16:01:33;1.63;;;1.30;;
10134;SDS011;5107;48.850;8.924;2024-03-02T16:03:58;1.83;;;1.30;;
10134;SDS011;5107;48.850;8.924;2024-03-02T16:06:26;0.97;;;0.97;;
10134;SDS011;5107;48.850;8.924;2024-03-02T16:08:52;1.40;;;1.30;;